Time;durP1;ratioP1;P1;durP2;ratioP2;P2;SDS_P1;SDS_P2;PMS_P1;PMS_P2;Temp;Humidity;BMP_temperature;BMP_pressure;BME280_temperature;BME280_humidity;BME280_pressure;Samples;Min_cycle;Max_cycle;Signal;HPM_P1;HPM_P2
2022/01/14 00:04:27;;;;;;;29.45;18.42;;;;;;;3.81;91.06;101016.68;3331234;83;21044;-72
2022/01/14 00:09:18;;;;;;;21.62;12.85;;;;;;;3.82;91.05;101001.30;3339386;83;20958;-72
2022/01/14 00:19:07;;;;;;;25.92;17.95;;;;;;;3.84;91.00;101005.64;3302575;83;21488;-73
2022/01/14 00:31:40;;;;;;;27.60;17.85;;;;;;;3.86;90.95;101004.02;3282622;83;21044;-73
2022/01/14 00:34:06;;;;;;;23.77;16.87;;;;;;;3.87;90.78;100976.22;3331205;83;21050;-72
2022/01/14 00:38:57;;;;;;;25.02;17.35;;;;;;;3.88;90.77;100954.81;3324650;83;21007;-72
2022/01/14 00:43:53;;;;;;;25.72;17.82;;;;;;;3.90;90.70;100954.48;3359675;83;21542;-73
2022/01/14 00:48:43;;;;;;;25.68;17.15;;;;;;;3.91;90.71;100962.69;3344272;82;20990;-72
2022/01/14 00:53:34;;;;;;;27.40;20.32;;;;;;;3.92;90.64;100950.31;3399605;83;21221;-73
2022/01/14 01:03:35;;;;;;;28.15;17.65;;;;;;;3.92;90.58;100937.05;3414429;82;21711;-72
2022/01/14 01:08:28;;;;;;;26.50;18.45;;;;;;;3.94;90.47;100938.41;3345168;83;20935;-72
2022/01/14 01:13:30;;;;;;;27.82;20.05;;;;;;;3.94;90.41;100922.97;3342266;83;21002;-73
2022/01/14 01:18:20;;;;;;;28.27;20.08;;;;;;;3.95;90.34;100926.00;3361714;82;21043;-73
2022/01/14 01:23:11;;;;;;;28.83;18.55;;;;;;;3.95;90.32;100916.99;3354226;82;20920;-72
2022/01/14 01:28:04;;;;;;;26.15;16.73;;;;;;;3.94;90.23;100907.53;3380214;83;21002;-72
2022/01/14 01:32:58;;;;;;;25.55;16.85;;;;;;;3.93;90.20;100899.33;3339098;82;20907;-73
2022/01/14 01:37:50;;;;;;;25.52;17.35;;;;;;;3.93;90.18;100895.47;3344020;82;21017;-73
2022/01/14 01:42:44;;;;;;;31.30;18.12;;;;;;;3.93;90.13;100887.75;3390096;83;21663;-72
2022/01/14 01:47:37;;;;;;;25.52;18.77;;;;;;;3.94;90.06;100888.23;3371414;82;20979;-71
2022/01/14 01:52:28;;;;;;;30.43;19.62;;;;;;;3.93;90.01;100888.62;3325451;83;22048;-73
2022/01/14 01:57:19;;;;;;;27.30;19.48;;;;;;;3.93;90.06;100890.32;3345160;82;21764;-72
2022/01/14 02:02:11;;;;;;;29.48;17.48;;;;;;;3.94;90.02;100868.95;3341993;83;21339;-73
2022/01/14 02:07:02;;;;;;;29.35;18.23;;;;;;;3.95;90.00;100862.97;3362764;83;21206;-72
2022/01/14 02:11:53;;;;;;;28.83;17.62;;;;;;;3.96;89.93;100842.88;3352637;82;21480;-74
2022/01/14 02:22:13;;;;;;;21.85;15.53;;;;;;;3.97;89.91;100826.61;3378266;83;21050;-72
2022/01/14 02:27:05;;;;;;;22.13;14.47;;;;;;;3.96;89.93;100821.02;3341291;83;20951;-71
2022/01/14 02:31:57;;;;;;;27.13;18.65;;;;;;;3.96;89.94;100816.73;3355110;84;21446;-72
2022/01/14 02:36:49;;;;;;;24.47;16.37;;;;;;;3.97;89.90;100807.31;3325542;83;21634;-73
2022/01/14 02:41:44;;;;;;;22.80;16.60;;;;;;;3.96;89.88;100784.58;3330986;83;20989;-71
2022/01/14 02:46:49;;;;;;;19.07;15.32;;;;;;;3.97;89.91;100763.58;3315198;83;20960;-72
2022/01/14 02:51:35;;;;;;;23.73;14.43;;;;;;;3.98;89.95;100757.64;3390334;82;20954;-72
2022/01/14 02:56:31;;;;;;;24.25;17.45;;;;;;;3.98;89.99;100739.63;3358797;82;22216;-72
2022/01/14 03:01:25;;;;;;;27.15;16.87;;;;;;;3.97;90.07;100739.14;3400710;82;20946;-73
2022/01/14 03:06:16;;;;;;;26.23;16.15;;;;;;;3.95;90.17;100731.39;3397695;82;20919;-73
2022/01/14 03:11:35;;;;;;;23.02;16.10;;;;;;;3.95;90.27;100731.77;3382891;82;20963;-72
2022/01/14 03:16:28;;;;;;;25.17;15.85;;;;;;;3.94;90.36;100736.45;3417190;82;21013;-73
2022/01/14 03:21:28;;;;;;;21.90;14.40;;;;;;;3.94;90.38;100742.89;3314769;82;20984;-72
2022/01/14 03:26:21;;;;;;;18.62;13.10;;;;;;;3.95;90.47;100748.48;3382182;82;21468;-73
2022/01/14 03:31:12;;;;;;;19.98;12.60;;;;;;;3.94;90.60;100751.89;3346690;82;20997;-73
2022/01/14 03:36:05;;;;;;;20.25;12.80;;;;;;;3.95;90.57;100749.77;3351691;82;21218;-72
2022/01/14 03:40:57;;;;;;;17.15;11.70;;;;;;;3.97;90.56;100753.29;3375089;82;21418;-73
2022/01/14 03:45:49;;;;;;;17.85;13.30;;;;;;;3.98;90.58;100767.92;3379443;82;22091;-72
2022/01/14 03:50:42;;;;;;;12.37;10.03;;;;;;;4.00;90.59;100756.00;3411438;82;21417;-72
2022/01/14 03:55:33;;;;;;;16.95;12.63;;;;;;;4.00;90.55;100744.02;3382244;82;21492;-72
2022/01/14 04:00:25;;;;;;;17.75;11.88;;;;;;;4.00;90.66;100744.43;3327613;85;20950;-73
2022/01/14 04:05:16;;;;;;;16.00;11.97;;;;;;;4.00;90.62;100741.44;3285154;84;21225;-73
2022/01/14 04:10:11;;;;;;;15.35;11.57;;;;;;;3.99;90.59;100747.42;3277555;84;21012;-73
2022/01/14 04:19:52;;;;;;;15.65;12.18;;;;;;;3.98;90.60;100734.48;3353926;83;20954;-72
2022/01/14 04:24:43;;;;;;;15.25;10.20;;;;;;;3.97;90.62;100706.98;3360639;83;21689;-72
2022/01/14 04:29:34;;;;;;;13.38;10.35;;;;;;;3.96;90.85;100710.39;3383799;82;20986;-72
2022/01/14 04:34:25;;;;;;;13.62;10.40;;;;;;;3.95;90.77;100708.61;3377963;82;20975;-72
2022/01/14 04:39:16;;;;;;;9.08;7.33;;;;;;;3.93;90.85;100716.67;3341818;82;21712;-73
2022/01/14 04:44:07;;;;;;;14.07;10.40;;;;;;;3.92;91.20;100691.78;3365462;83;20986;-72
2022/01/14 04:48:59;;;;;;;14.35;11.48;;;;;;;3.91;90.96;100678.44;3353091;83;20988;-72
2022/01/14 04:53:50;;;;;;;15.53;10.68;;;;;;;3.89;91.00;100682.22;3399463;83;20986;-71
2022/01/14 04:58:41;;;;;;;13.20;9.83;;;;;;;3.90;91.01;100674.09;3379598;83;21138;-72
2022/01/14 05:03:32;;;;;;;13.58;10.55;;;;;;;3.91;91.08;100675.86;3352880;83;21536;-72
2022/01/14 05:08:34;;;;;;;12.33;8.55;;;;;;;3.91;91.14;100653.58;3322457;84;21006;-72
2022/01/14 05:13:23;;;;;;;12.73;8.73;;;;;;;3.92;91.37;100669.92;3356424;83;21058;-72
2022/01/14 05:18:15;;;;;;;11.78;9.20;;;;;;;3.93;91.21;100659.66;3376238;83;20946;-72
2022/01/14 05:23:06;;;;;;;10.98;8.35;;;;;;;3.96;91.33;100664.08;3346659;83;20922;-72
2022/01/14 05:27:57;;;;;;;13.50;10.13;;;;;;;3.96;91.33;100664.08;3341688;83;21940;-72
2022/01/14 05:32:52;;;;;;;14.47;9.80;;;;;;;3.97;91.26;100638.81;3397507;83;21710;-72
2022/01/14 05:37:43;;;;;;;10.58;7.92;;;;;;;3.98;91.18;100624.73;3333057;83;21150;-72
2022/01/14 05:42:36;;;;;;;11.40;8.15;;;;;;;4.00;91.27;100604.22;3334893;83;20983;-72
2022/01/14 05:47:27;;;;;;;9.53;7.78;;;;;;;4.02;91.60;100619.30;3362562;83;21209;-73
2022/01/14 05:52:19;;;;;;;9.90;7.95;;;;;;;4.04;91.29;100601.36;3377304;82;21527;-72
2022/01/14 05:57:10;;;;;;;10.08;8.18;;;;;;;4.05;91.25;100600.14;3382495;82;21011;-71
2022/01/14 06:02:02;;;;;;;11.43;7.67;;;;;;;4.07;91.22;100595.94;3385872;82;22096;-72
2022/01/14 06:06:53;;;;;;;7.92;6.90;;;;;;;4.10;91.13;100584.49;3404532;82;20971;-73
2022/01/14 06:11:44;;;;;;;9.18;6.72;;;;;;;4.12;91.02;100597.01;3374601;82;21089;-73
2022/01/14 06:16:35;;;;;;;8.43;6.70;;;;;;;4.13;91.02;100594.02;3385444;82;21660;-73
2022/01/14 06:21:26;;;;;;;7.58;6.28;;;;;;;4.16;90.91;100599.30;3392940;82;21014;-72
2022/01/14 06:26:17;;;;;;;8.85;7.20;;;;;;;4.15;90.84;100566.27;3365098;82;20954;-72
2022/01/14 06:31:08;;;;;;;8.98;6.05;;;;;;;4.18;90.81;100562.50;3401860;82;21063;-73
2022/01/14 06:35:59;;;;;;;8.75;6.53;;;;;;;4.20;90.81;100553.17;3400112;82;21075;-71
2022/01/14 06:40:50;;;;;;;10.75;6.47;;;;;;;4.24;90.76;100554.56;3358452;82;21066;-72
2022/01/14 06:45:43;;;;;;;9.38;6.47;;;;;;;4.24;90.72;100544.27;3361103;82;20993;-71
2022/01/14 06:50:34;;;;;;;10.00;7.40;;;;;;;4.25;90.69;100544.75;3390979;82;21539;-72
2022/01/14 06:55:25;;;;;;;9.13;5.22;;;;;;;4.27;90.84;100570.14;3416678;82;20981;-72
2022/01/14 07:00:20;;;;;;;7.60;5.95;;;;;;;4.26;90.87;100556.81;3417974;82;21164;-72
2022/01/14 07:05:12;;;;;;;8.50;6.40;;;;;;;4.26;90.85;100545.23;3384850;82;20958;-71
2022/01/14 07:10:06;;;;;;;8.08;6.03;;;;;;;4.28;90.89;100541.89;3363517;82;20978;-72
2022/01/14 07:14:58;;;;;;;7.45;5.47;;;;;;;4.28;90.94;100547.04;3372148;82;21572;-72
2022/01/14 07:19:53;;;;;;;8.23;5.75;;;;;;;4.29;91.06;100529.51;3384578;82;21064;-72
2022/01/14 07:24:44;;;;;;;6.67;5.37;;;;;;;4.31;91.09;100535.97;3358214;82;21477;-72
2022/01/14 07:29:35;;;;;;;7.67;5.33;;;;;;;4.32;91.13;100527.45;3404284;82;20986;-71
2022/01/14 07:34:26;;;;;;;5.42;4.62;;;;;;;4.34;91.17;100518.08;3380135;82;21001;-72
2022/01/14 07:39:19;;;;;;;5.25;4.47;;;;;;;4.35;91.16;100509.56;3398318;82;20958;-72
2022/01/14 07:44:11;;;;;;;6.58;4.83;;;;;;;4.37;91.25;100496.33;3347280;82;20978;-72
2022/01/14 07:49:03;;;;;;;6.87;5.95;;;;;;;4.38;91.23;100505.79;3398997;82;21102;-71
2022/01/14 07:53:56;;;;;;;7.97;6.05;;;;;;;4.41;91.21;100503.34;3392152;82;21493;-72
2022/01/14 07:58:48;;;;;;;8.00;6.03;;;;;;;4.41;91.24;100499.48;3394968;82;21466;-72
2022/01/14 08:03:39;;;;;;;6.80;5.80;;;;;;;4.42;91.37;100483.23;3394861;82;21448;-72
2022/01/14 08:08:30;;;;;;;8.43;6.75;;;;;;;4.43;91.58;100475.95;3383886;82;22459;-71
2022/01/14 08:13:21;;;;;;;8.50;6.58;;;;;;;4.43;91.46;100466.95;3350914;82;21083;-71
2022/01/14 08:18:12;;;;;;;7.40;6.58;;;;;;;4.45;91.64;100456.29;3394621;82;20962;-72
2022/01/14 08:23:03;;;;;;;7.62;6.87;;;;;;;4.47;91.69;100461.11;3384387;82;20940;-71
2022/01/14 08:27:55;;;;;;;8.23;7.40;;;;;;;4.49;91.60;100454.32;3337516;82;21355;-72
2022/01/14 08:32:46;;;;;;;7.62;6.58;;;;;;;4.52;91.68;100442.83;3303035;84;21405;-72
2022/01/14 08:37:38;;;;;;;7.75;6.95;;;;;;;4.54;91.60;100419.33;3288499;84;21440;-72
2022/01/14 08:42:29;;;;;;;8.10;7.03;;;;;;;4.56;91.68;100427.08;3283428;84;21051;-72
2022/01/14 08:47:21;;;;;;;11.30;7.40;;;;;;;4.58;91.65;100428.91;3372817;83;22056;-71
2022/01/14 08:52:13;;;;;;;9.33;7.37;;;;;;;4.61;91.76;100422.11;3352177;82;20990;-74
2022/01/14 08:57:05;;;;;;;12.00;9.15;;;;;;;4.64;91.73;100429.95;3361925;82;20993;-71
2022/01/14 09:01:57;;;;;;;7.78;6.97;;;;;;;4.66;91.88;100429.17;3379186;83;20942;-72
2022/01/14 09:06:48;;;;;;;10.82;7.92;;;;;;;4.68;91.87;100418.94;3394463;82;21097;-72
2022/01/14 09:11:40;;;;;;;12.78;8.13;;;;;;;4.73;92.03;100406.68;3378930;83;20959;-73
2022/01/14 09:16:32;;;;;;;8.30;6.60;;;;;;;4.78;91.89;100410.72;3372522;83;20998;-72
2022/01/14 09:21:23;;;;;;;9.70;7.85;;;;;;;4.81;92.12;100406.08;3359296;83;20951;-72
2022/01/14 09:26:14;;;;;;;9.43;7.67;;;;;;;4.84;92.02;100403.20;3377611;83;21146;-72
2022/01/14 09:31:05;;;;;;;8.15;7.35;;;;;;;4.90;92.00;100399.56;3394556;82;21684;-72
2022/01/14 09:35:56;;;;;;;8.28;7.30;;;;;;;4.91;91.96;100402.59;3401270;82;21503;-72
2022/01/14 09:40:50;;;;;;;11.48;8.63;;;;;;;4.95;91.99;100401.89;3392666;82;20996;-72
2022/01/14 09:45:41;;;;;;;7.90;6.55;;;;;;;5.02;91.95;100392.65;3391087;83;20994;-74
2022/01/14 09:50:33;;;;;;;9.00;7.15;;;;;;;5.06;92.05;100371.34;3354852;82;21033;-74
2022/01/14 09:55:25;;;;;;;9.40;7.95;;;;;;;5.13;91.88;100379.73;3336024;83;20987;-73
2022/01/14 10:00:16;;;;;;;8.78;6.37;;;;;;;5.16;91.84;100381.53;3316584;83;20983;-73
2022/01/14 10:05:12;;;;;;;7.67;6.58;;;;;;;5.23;91.86;100374.46;3398343;83;20955;-75
2022/01/14 10:10:23;;;;;;;7.05;6.33;;;;;;;5.29;91.74;100352.77;3366954;83;21000;-73
2022/01/14 10:15:14;;;;;;;7.95;6.10;;;;;;;5.39;91.60;100347.48;3314150;83;21456;-70
2022/01/14 10:20:10;;;;;;;11.68;7.28;;;;;;;5.48;91.50;100331.43;3327994;83;20950;-72
2022/01/14 10:25:09;;;;;;;8.85;7.45;;;;;;;5.50;91.49;100329.77;3326923;83;21117;-72
2022/01/14 10:30:16;;;;;;;8.05;6.70;;;;;;;5.50;91.41;100330.63;3382893;83;20970;-72
2022/01/14 10:35:12;;;;;;;7.67;6.05;;;;;;;5.49;91.45;100324.14;3357967;83;21484;-71
2022/01/14 10:40:08;;;;;;;7.30;6.53;;;;;;;5.49;91.54;100320.27;3374020;83;21313;-74
2022/01/14 10:45:27;;;;;;;8.23;6.17;;;;;;;5.48;91.53;100315.96;3363970;83;21026;-72
2022/01/14 10:50:44;;;;;;;7.83;5.95;;;;;;;5.49;91.62;100317.69;3337801;83;21022;-71
2022/01/14 10:55:40;;;;;;;6.08;4.80;;;;;;;5.47;91.64;100311.61;3339235;82;21708;-72
2022/01/14 11:00:47;;;;;;;7.85;7.05;;;;;;;5.50;91.81;100315.59;3395368;82;21018;-72
2022/01/14 11:05:39;;;;;;;8.90;7.17;;;;;;;5.49;91.66;100312.53;3387117;82;21264;-74
2022/01/14 11:10:37;;;;;;;6.95;5.70;;;;;;;5.50;91.72;100296.25;3382351;82;21005;-73
2022/01/14 11:15:31;;;;;;;7.17;5.50;;;;;;;5.54;91.70;100290.34;3333015;85;20948;-73
2022/01/14 11:20:36;;;;;;;6.15;5.55;;;;;;;5.54;91.76;100308.00;3372713;83;20983;-73
2022/01/14 11:25:23;;;;;;;7.30;5.78;;;;;;;5.59;91.71;100296.52;3363175;83;20932;-74
2022/01/14 11:30:15;;;;;;;8.23;5.67;;;;;;;5.57;91.84;100289.16;3327074;83;21163;-73
2022/01/14 11:35:25;;;;;;;7.40;5.40;;;;;;;5.62;91.66;100282.44;3328764;83;21011;-73
2022/01/14 11:40:18;;;;;;;8.50;5.20;;;;;;;5.65;91.64;100277.38;3331827;83;20963;-73
2022/01/14 11:45:13;;;;;;;6.25;4.92;;;;;;;5.66;91.63;100280.41;3356533;83;21223;-73
2022/01/14 11:50:22;;;;;;;6.70;4.50;;;;;;;5.70;91.72;100279.66;3257445;85;21488;-74
2022/01/14 11:55:30;;;;;;;4.45;3.70;;;;;;;5.77;91.46;100290.17;3363746;83;21126;-75
2022/01/14 12:00:38;;;;;;;4.67;3.20;;;;;;;5.85;91.37;100286.12;3379230;83;20956;-74
2022/01/14 12:05:30;;;;;;;6.95;3.00;;;;;;;5.91;91.19;100294.03;3355866;83;21001;-77
2022/01/14 12:10:31;;;;;;;3.42;2.70;;;;;;;6.06;90.94;100284.59;3354984;83;21078;-77
2022/01/14 12:15:59;;;;;;;4.20;2.92;;;;;;;6.18;90.74;100278.91;3399757;83;20971;-76
2022/01/14 12:20:50;;;;;;;3.92;3.05;;;;;;;6.28;90.29;100277.05;3327207;83;22022;-76
2022/01/14 12:25:45;;;;;;;2.75;2.27;;;;;;;6.37;89.79;100285.03;3282721;83;21023;-76
2022/01/14 12:30:36;;;;;;;6.22;3.05;;;;;;;6.46;89.70;100278.81;3269680;86;21546;-79
2022/01/14 12:35:30;;;;;;;6.12;2.90;;;;;;;6.46;89.38;100263.32;3334413;83;22155;-74
2022/01/14 12:40:26;;;;;;;5.80;3.85;;;;;;;6.46;89.18;100280.11;3336136;83;21015;-78
2022/01/14 12:45:34;;;;;;;3.27;2.98;;;;;;;6.41;89.02;100276.52;3357023;83;21007;-75
2022/01/14 12:50:29;;;;;;;6.35;3.87;;;;;;;6.41;88.90;100289.44;3349110;83;20932;-77
2022/01/14 12:55:20;;;;;;;4.70;2.90;;;;;;;6.43;88.68;100281.31;3315280;83;21009;-76
2022/01/14 13:00:14;;;;;;;4.67;2.42;;;;;;;6.42;88.71;100285.14;3341516;83;21027;-76
2022/01/14 13:05:15;;;;;;;5.33;2.92;;;;;;;6.44;88.37;100286.08;3361322;83;21008;-73
2022/01/14 13:10:09;;;;;;;6.00;2.80;;;;;;;6.42;87.85;100291.20;3346817;83;21442;-73
2022/01/14 13:15:04;;;;;;;3.67;2.80;;;;;;;6.39;88.04;100292.83;3297598;83;20982;-73
2022/01/14 13:20:08;;;;;;;4.70;2.60;;;;;;;6.42;87.81;100288.62;3351956;83;20987;-74
2022/01/14 13:25:07;;;;;;;8.98;3.42;;;;;;;6.42;87.85;100296.37;3244544;86;21008;-73
2022/01/14 13:30:07;;;;;;;5.75;2.67;;;;;;;6.46;87.33;100285.27;3314135;83;21393;-74
2022/01/14 13:35:26;;;;;;;4.78;2.92;;;;;;;6.39;87.44;100298.86;3316097;83;22053;-73
2022/01/14 13:40:29;;;;;;;5.87;3.02;;;;;;;6.40;86.79;100292.88;3271486;86;20980;-73
2022/01/14 13:45:26;;;;;;;5.97;2.30;;;;;;;6.40;86.71;100291.58;3236833;87;21030;-74
2022/01/14 13:50:19;;;;;;;4.40;2.40;;;;;;;6.38;86.17;100285.89;3214900;87;20996;-73
2022/01/14 13:55:12;;;;;;;6.30;2.83;;;;;;;6.32;86.38;100294.36;3324378;84;20972;-74
2022/01/14 14:00:13;;;;;;;3.72;2.60;;;;;;;6.41;86.21;100285.98;3293926;84;21221;-73
2022/01/14 14:05:05;;;;;;;3.70;2.37;;;;;;;6.48;85.28;100273.70;3265669;84;21083;-74
2022/01/14 14:10:20;;;;;;;3.95;2.52;;;;;;;6.53;85.18;100294.46;3336806;83;21030;-74
2022/01/14 14:20:10;;;;;;;5.00;3.20;;;;;;;6.30;84.15;100303.77;3341103;83;20991;-73
2022/01/14 14:25:10;;;;;;;6.40;2.95;;;;;;;6.21;84.93;100308.69;3297471;83;21987;-72
2022/01/14 14:30:05;;;;;;;6.03;3.10;;;;;;;6.16;84.82;100333.49;3334523;84;20944;-73
2022/01/14 14:34:59;;;;;;;5.45;2.58;;;;;;;6.12;84.92;100335.11;3323028;85;20942;-74
2022/01/14 14:39:51;;;;;;;8.95;2.80;;;;;;;6.09;84.37;100339.75;3266133;87;21416;-76
2022/01/14 14:44:43;;;;;;;5.17;2.52;;;;;;;6.08;84.03;100365.13;3333737;83;21029;-73
2022/01/14 14:49:35;;;;;;;3.77;2.58;;;;;;;6.06;83.83;100356.46;3386737;82;21226;-75
2022/01/14 14:54:26;;;;;;;5.78;3.50;;;;;;;6.02;83.90;100366.20;3382241;82;20998;-74
2022/01/14 14:59:21;;;;;;;4.17;1.37;;;;;;;5.97;83.76;100421.97;3384715;82;21432;-71
2022/01/14 15:04:11;;;;;;;2.58;1.95;;;;;;;5.82;81.48;100470.50;3368092;82;21009;-73
2022/01/14 15:09:06;;;;;;;2.83;1.20;;;;;;;5.22;81.26;100479.66;3390197;82;21013;-72
2022/01/14 15:13:59;;;;;;;3.50;1.65;;;;;;;4.44;81.19;100502.18;3366609;82;21333;-72
2022/01/14 15:18:50;;;;;;;2.95;1.70;;;;;;;3.79;82.36;100536.94;3380915;82;20990;-72
2022/01/14 15:23:41;;;;;;;2.65;1.80;;;;;;;3.35;83.25;100506.38;3408340;82;21544;-75
2022/01/14 15:28:33;;;;;;;2.92;1.95;;;;;;;3.14;84.09;100499.02;3387538;82;20939;-71
2022/01/14 15:33:25;;;;;;;4.08;1.98;;;;;;;3.04;84.87;100506.34;3389903;82;20958;-71
2022/01/14 15:38:17;;;;;;;2.55;1.60;;;;;;;3.03;85.23;100530.67;3367757;82;21874;-73
2022/01/14 15:43:09;;;;;;;4.70;2.35;;;;;;;3.01;85.49;100533.16;3359536;82;34493;-71
2022/01/14 15:48:00;;;;;;;6.12;2.75;;;;;;;3.01;85.73;100533.16;3365924;82;20997;-71
2022/01/14 15:52:51;;;;;;;7.37;3.00;;;;;;;3.01;85.70;100540.87;3344122;82;21144;-71
2022/01/14 15:57:42;;;;;;;4.62;1.67;;;;;;;3.02;85.81;100554.20;3393240;82;21844;-71
2022/01/14 16:02:34;;;;;;;4.42;2.05;;;;;;;3.01;86.16;100533.16;3322726;84;22014;-70
2022/01/14 16:07:27;;;;;;;7.97;3.75;;;;;;;3.09;85.97;100566.02;3253356;85;20987;-71
2022/01/14 16:12:18;;;;;;;3.62;2.10;;;;;;;3.12;86.04;100566.16;3316161;84;21008;-76
2022/01/14 16:17:10;;;;;;;3.17;2.02;;;;;;;3.13;85.89;100569.19;3309641;83;20949;-72
2022/01/14 16:22:03;;;;;;;4.67;2.20;;;;;;;3.14;85.83;100565.41;3321700;84;21528;-72
2022/01/14 16:26:54;;;;;;;8.70;2.55;;;;;;;3.15;85.77;100577.45;3337908;83;21441;-72
2022/01/14 16:31:45;;;;;;;5.53;3.05;;;;;;;3.12;85.62;100584.14;3351486;83;20948;-73
2022/01/14 16:36:37;;;;;;;6.17;2.33;;;;;;;3.12;85.70;100591.86;3327615;83;20960;-71
2022/01/14 16:41:28;;;;;;;3.95;2.40;;;;;;;3.11;85.65;100609.34;3302457;83;21545;-72
2022/01/14 16:46:20;;;;;;;4.10;1.95;;;;;;;3.07;85.66;100619.02;3318313;83;21540;-74
2022/01/14 16:51:12;;;;;;;3.22;2.00;;;;;;;3.07;85.70;100626.31;3336687;83;21064;-72
2022/01/14 16:56:04;;;;;;;2.98;2.20;;;;;;;3.04;85.54;100629.63;3193212;87;22252;-76
2022/01/14 17:00:56;;;;;;;7.40;2.30;;;;;;;2.98;85.45;100656.72;3303289;84;21009;-71
2022/01/14 17:05:47;;;;;;;3.22;1.95;;;;;;;2.87;85.42;100665.20;3282011;84;20986;-70
2022/01/14 17:10:39;;;;;;;4.78;2.45;;;;;;;2.80;85.34;100682.41;3306008;84;21603;-72
2022/01/14 17:15:31;;;;;;;8.73;2.75;;;;;;;2.72;85.29;100687.19;3281463;84;22001;-72
2022/01/14 17:20:22;;;;;;;5.47;2.55;;;;;;;2.63;85.26;100713.30;3306789;84;20945;-71
2022/01/14 17:25:14;;;;;;;4.42;2.42;;;;;;;2.54;85.27;100715.42;3306022;84;21205;-72
2022/01/14 17:30:11;;;;;;;5.78;2.40;;;;;;;2.47;85.13;100718.48;3299892;84;21250;-72
2022/01/14 17:35:03;;;;;;;5.22;2.47;;;;;;;2.41;85.37;100736.13;3298567;84;20978;-72
2022/01/14 17:39:54;;;;;;;4.45;2.70;;;;;;;2.36;85.16;100733.73;3325558;84;22352;-71
2022/01/14 17:44:47;;;;;;;5.97;2.67;;;;;;;2.30;85.11;100745.85;3303227;84;20978;-71
2022/01/14 17:49:38;;;;;;;5.58;2.35;;;;;;;2.25;85.10;100748.58;3302539;84;20983;-72
2022/01/14 17:54:29;;;;;;;4.92;2.15;;;;;;;2.20;85.08;100750.93;3324994;83;20942;-73
2022/01/14 17:59:20;;;;;;;8.85;4.37;;;;;;;2.15;85.07;100757.50;3355474;83;21193;-71
2022/01/14 18:04:13;;;;;;;8.55;3.67;;;;;;;2.11;85.00;100765.86;3355788;83;21109;-71
2022/01/14 18:09:06;;;;;;;4.87;3.27;;;;;;;2.08;84.90;100754.14;3337201;84;20981;-71
2022/01/14 18:14:03;;;;;;;10.43;6.47;;;;;;;2.07;84.87;100767.34;3316799;83;20967;-71
2022/01/14 18:18:52;;;;;;;8.73;3.95;;;;;;;2.09;84.86;100771.28;3313191;83;21319;-71
2022/01/14 18:23:43;;;;;;;11.68;5.85;;;;;;;2.07;84.59;100776.73;3331025;83;20939;-71
2022/01/14 18:28:36;;;;;;;7.22;4.17;;;;;;;2.08;84.55;100788.77;3297545;83;21490;-72
2022/01/14 18:33:27;;;;;;;10.82;3.52;;;;;;;2.10;84.15;100784.59;3338186;83;20940;-71
2022/01/14 18:38:18;;;;;;;9.98;5.20;;;;;;;2.13;83.93;100794.13;3297925;83;21753;-71
2022/01/14 18:43:11;;;;;;;11.48;5.25;;;;;;;2.12;83.68;100793.25;3342894;83;20967;-71
2022/01/14 18:48:03;;;;;;;5.60;2.70;;;;;;;2.13;83.72;100795.03;3342977;83;21509;-71
2022/01/14 18:52:57;;;;;;;7.03;2.70;;;;;;;2.15;83.27;100802.40;3344299;83;21001;-70
2022/01/14 18:57:48;;;;;;;8.13;2.80;;;;;;;2.16;83.13;100805.84;3365003;82;20995;-70
2022/01/14 19:02:39;;;;;;;7.08;2.42;;;;;;;2.14;82.79;100822.42;3370018;82;20896;-71
2022/01/14 19:07:30;;;;;;;6.83;2.83;;;;;;;2.14;82.79;100822.42;3387607;82;22251;-71
2022/01/14 19:12:22;;;;;;;5.37;2.70;;;;;;;2.13;82.75;100824.91;3365289;82;20958;-70
2022/01/14 19:17:13;;;;;;;6.58;2.85;;;;;;;2.10;82.37;100823.08;3369237;82;21500;-71
2022/01/14 19:22:05;;;;;;;7.47;3.40;;;;;;;2.09;82.49;100832.84;3408290;82;21109;-70
2022/01/14 19:26:56;;;;;;;9.05;4.10;;;;;;;2.08;82.28;100838.78;3345751;82;20963;-70
2022/01/14 19:31:48;;;;;;;7.40;3.17;;;;;;;2.07;82.38;100846.86;3360405;82;20972;-70
2022/01/14 19:36:39;;;;;;;9.23;3.50;;;;;;;2.04;82.28;100848.00;3363631;82;21002;-70
2022/01/14 19:41:30;;;;;;;11.33;4.92;;;;;;;2.02;82.07;100853.83;3387311;82;21206;-70
2022/01/14 19:46:22;;;;;;;8.65;3.67;;;;;;;2.00;82.10;100848.61;3342584;82;21640;-70
2022/01/14 19:51:14;;;;;;;9.15;2.83;;;;;;;1.98;81.91;100847.66;3340531;82;20971;-70
2022/01/14 19:56:07;;;;;;;12.73;3.20;;;;;;;1.97;81.44;100853.98;3318534;82;20971;-70
2022/01/14 20:01:02;;;;;;;13.32;3.50;;;;;;;1.98;81.21;100858.32;3293086;84;21077;-70
2022/01/14 20:05:51;;;;;;;6.58;2.98;;;;;;;1.99;81.17;100863.95;3278461;84;21456;-71
2022/01/14 20:10:42;;;;;;;10.38;3.60;;;;;;;1.97;80.76;100864.23;3284318;84;21030;-70
2022/01/14 20:15:34;;;;;;;8.98;3.35;;;;;;;1.96;80.81;100859.52;3280284;84;21022;-71
2022/01/14 20:20:25;;;;;;;8.50;3.00;;;;;;;1.95;80.62;100874.81;3238313;86;21010;-70
2022/01/14 20:25:19;;;;;;;9.15;4.17;;;;;;;1.93;80.27;100880.27;3315712;84;21535;-70
2022/01/14 20:30:14;;;;;;;7.80;4.17;;;;;;;1.88;80.05;100884.76;3317552;84;21949;-72
2022/01/14 20:35:08;;;;;;;7.37;3.05;;;;;;;1.87;80.21;100886.82;3296421;84;21078;-71
2022/01/14 20:40:00;;;;;;;8.38;2.95;;;;;;;1.85;80.10;100883.70;3293151;84;21138;-71
2022/01/14 20:44:54;;;;;;;10.15;3.77;;;;;;;1.83;79.80;100896.84;3296853;84;21191;-74
2022/01/14 20:49:44;;;;;;;10.15;2.98;;;;;;;1.80;79.87;100889.84;3299121;84;21508;-70
2022/01/14 20:54:35;;;;;;;9.83;3.47;;;;;;;1.77;79.63;100894.83;3315050;83;22068;-71
2022/01/14 20:59:27;;;;;;;10.20;3.25;;;;;;;1.76;79.51;100884.08;3337999;83;21021;-71
2022/01/14 21:04:18;;;;;;;12.75;3.37;;;;;;;1.75;79.18;100882.30;3297403;84;20943;-71
2022/01/14 21:09:12;;;;;;;6.05;2.77;;;;;;;1.76;79.32;100891.77;3314944;84;20979;-71
2022/01/14 21:14:04;;;;;;;8.35;2.35;;;;;;;1.73;78.98;100903.53;3322560;84;20975;-72
2022/01/14 21:18:55;;;;;;;8.75;2.83;;;;;;;1.70;79.03;100898.73;3275223;84;21109;-71
2022/01/14 21:23:47;;;;;;;10.63;3.27;;;;;;;1.69;78.78;100904.64;3318508;84;20951;-70
2022/01/14 21:28:38;;;;;;;7.62;3.25;;;;;;;1.69;78.74;100914.02;3322211;84;20983;-71
2022/01/14 21:33:33;;;;;;;6.97;3.27;;;;;;;1.65;78.82;100914.25;3321139;83;21650;-71
2022/01/14 21:38:23;;;;;;;9.15;3.22;;;;;;;1.61;78.91;100917.82;3287601;84;20971;-72
2022/01/14 21:43:17;;;;;;;9.25;3.85;;;;;;;1.53;78.73;100925.95;3297882;84;20975;-72
2022/01/14 21:48:07;;;;;;;7.97;3.17;;;;;;;1.51;78.66;100922.43;3299735;84;20998;-72
2022/01/14 21:52:58;;;;;;;8.15;3.17;;;;;;;1.49;78.58;100934.28;3320096;84;21754;-71
2022/01/14 21:57:49;;;;;;;7.42;2.85;;;;;;;1.45;78.47;100936.19;3349069;82;20958;-72
2022/01/14 22:02:40;;;;;;;9.28;3.42;;;;;;;1.43;78.65;100937.79;3418986;82;20998;-71
2022/01/14 22:07:31;;;;;;;9.13;2.87;;;;;;;1.38;78.33;100934.08;3362794;82;21027;-72
2022/01/14 22:12:24;;;;;;;14.25;5.00;;;;;;;1.37;78.41;100933.58;3382613;82;20973;-72
2022/01/14 22:17:16;;;;;;;7.60;3.35;;;;;;;1.35;78.18;100946.70;3368839;82;20947;-72
2022/01/14 22:22:07;;;;;;;7.67;4.40;;;;;;;1.34;78.12;100951.32;3410041;82;21017;-72
2022/01/14 22:26:58;;;;;;;13.75;3.70;;;;;;;1.30;78.09;100947.70;3391415;82;21279;-71
2022/01/14 22:31:49;;;;;;;8.33;3.12;;;;;;;1.28;77.98;100954.83;3344028;82;22141;-71
2022/01/14 22:36:40;;;;;;;6.37;3.15;;;;;;;1.25;77.61;100952.08;3358134;82;21109;-71
2022/01/14 22:41:31;;;;;;;7.75;3.22;;;;;;;1.24;77.74;100960.17;3355693;82;20992;-71
2022/01/14 22:46:22;;;;;;;12.13;3.42;;;;;;;1.22;77.58;100956.64;3361609;82;22182;-71
2022/01/14 22:51:13;;;;;;;7.25;2.77;;;;;;;1.21;77.63;100965.51;3376637;82;21108;-71
2022/01/14 22:56:05;;;;;;;6.70;3.58;;;;;;;1.18;77.52;100965.32;3355320;82;21225;-71
2022/01/14 23:00:56;;;;;;;8.38;3.30;;;;;;;1.18;77.63;100969.16;3415645;82;21256;-72
2022/01/14 23:05:47;;;;;;;5.28;2.65;;;;;;;1.18;77.47;100971.72;3386045;82;21014;-71
2022/01/14 23:10:38;;;;;;;11.63;4.00;;;;;;;1.16;77.30;100979.31;3381060;82;21438;-71
2022/01/14 23:15:31;;;;;;;6.62;2.95;;;;;;;1.12;77.39;100983.37;3385810;82;20992;-71
2022/01/14 23:20:22;;;;;;;4.15;2.52;;;;;;;1.09;77.37;100985.77;3330387;82;21927;-71
2022/01/14 23:25:19;;;;;;;8.48;2.12;;;;;;;1.04;77.25;100989.73;3373106;82;20966;-71